Time;durP1;ratioP1;P1;durP2;ratioP2;P2;SDS_P1;SDS_P2;PMS_P1;PMS_P2;Temp;Humidity;BMP_temperature;BMP_pressure;BME280_temperature;BME280_humidity;BME280_pressure;Samples;Min_cycle;Max_cycle;Signal;HPM_P1;HPM_P2
2021/01/14 00:00:00;;;;;;;23.10;8.18;;;;;;;-0.32;92.80;99142.30;1765292;80;21609;-72
2021/01/14 00:02:27;;;;;;;37.35;18.42;;;;;;;-0.33;92.81;99141.47;1756429;81;21161;-72
2021/01/14 00:04:53;;;;;;;39.42;16.50;;;;;;;-0.34;92.82;99147.66;1756537;80;22057;-72
2021/01/14 00:07:19;;;;;;;28.17;10.98;;;;;;;-0.36;92.83;99147.45;1756214;81;21188;-72
2021/01/14 00:09:47;;;;;;;35.80;15.90;;;;;;;-0.40;92.82;99146.05;1777388;80;21144;-72
2021/01/14 00:12:13;;;;;;;27.27;7.83;;;;;;;-0.41;92.81;99152.24;1787603;78;21147;-72
2021/01/14 00:14:40;;;;;;;19.73;6.62;;;;;;;-0.42;92.82;99153.23;1786752;80;21164;-72
2021/01/14 00:17:06;;;;;;;22.90;7.50;;;;;;;-0.42;92.82;99152.72;1785880;80;22071;-72
2021/01/14 00:19:33;;;;;;;21.55;6.78;;;;;;;-0.41;92.82;99160.09;1785952;80;21136;-72
2021/01/14 00:21:59;;;;;;;10.90;4.42;;;;;;;-0.41;92.80;99165.33;1785987;80;21135;-71
2021/01/14 00:24:25;;;;;;;14.90;5.83;;;;;;;-0.41;92.82;99166.17;1785232;80;21183;-71
2021/01/14 00:26:52;;;;;;;19.12;5.80;;;;;;;-0.41;92.81;99167.95;1772259;80;21171;-71
2021/01/14 00:29:18;;;;;;;12.93;5.65;;;;;;;-0.41;92.80;99175.81;1786776;80;21715;-71
2021/01/14 00:31:44;;;;;;;14.15;6.20;;;;;;;-0.42;92.81;99168.43;1769262;80;21200;-71
2021/01/14 00:34:11;;;;;;;25.43;7.83;;;;;;;-0.44;92.81;99170.84;1783902;80;21568;-71
2021/01/14 00:39:34;;;;;;;12.60;6.12;;;;;;;-0.41;92.79;99177.12;1814911;77;22694;-71
2021/01/14 00:42:01;;;;;;;13.93;5.30;;;;;;;-0.47;92.78;99175.03;1787440;80;21151;-71
2021/01/14 00:44:27;;;;;;;13.75;5.95;;;;;;;-0.47;92.79;99174.55;1754347;80;21680;-71
2021/01/14 00:46:55;;;;;;;31.75;9.80;;;;;;;-0.45;92.80;99177.86;1739215;81;21159;-72
2021/01/14 00:49:22;;;;;;;34.70;15.63;;;;;;;-0.45;92.79;99180.95;1756231;81;21147;-73
2021/01/14 00:51:48;;;;;;;15.28;5.92;;;;;;;-0.45;92.78;99181.78;1736149;81;21234;-72
2021/01/14 00:54:15;;;;;;;16.77;5.28;;;;;;;-0.45;92.78;99188.81;1726059;83;21551;-72
2021/01/14 00:56:41;;;;;;;18.92;8.15;;;;;;;-0.45;92.76;99182.27;1725236;83;21159;-71
2021/01/14 00:59:07;;;;;;;13.08;6.53;;;;;;;-0.46;92.79;99190.63;1735356;81;21159;-72
2021/01/14 01:01:34;;;;;;;11.03;6.15;;;;;;;-0.48;92.78;99191.22;1756252;81;21599;-72
2021/01/14 01:04:01;;;;;;;10.23;4.35;;;;;;;-0.52;92.77;99194.58;1742173;80;21159;-72
2021/01/14 01:06:35;;;;;;;8.10;4.10;;;;;;;-0.55;92.76;99194.84;1725929;83;21167;-72
2021/01/14 01:09:05;;;;;;;8.60;4.45;;;;;;;-0.60;92.75;99197.00;1725765;83;21266;-71
2021/01/14 01:11:32;;;;;;;7.60;3.60;;;;;;;-0.63;92.77;99193.33;1726102;83;21178;-71
2021/01/14 01:13:58;;;;;;;9.45;5.15;;;;;;;-0.64;92.76;99204.78;1725360;82;21576;-72
2021/01/14 01:16:25;;;;;;;8.78;4.83;;;;;;;-0.66;92.76;99210.61;1743053;81;21666;-72
2021/01/14 01:18:51;;;;;;;9.85;5.35;;;;;;;-0.67;92.75;99214.17;1756032;80;21154;-72
2021/01/14 01:21:17;;;;;;;12.85;6.35;;;;;;;-0.68;92.75;99213.84;1756183;81;22709;-71
2021/01/14 01:23:44;;;;;;;11.25;5.95;;;;;;;-0.68;92.75;99215.16;1755979;81;21163;-71
2021/01/14 01:26:18;;;;;;;21.70;9.78;;;;;;;-0.67;92.76;99214.17;1755166;81;21878;-71
2021/01/14 01:28:45;;;;;;;14.63;7.87;;;;;;;-0.65;92.77;99216.68;1756194;81;21159;-71
2021/01/14 01:31:11;;;;;;;11.60;5.65;;;;;;;-0.62;92.76;99224.27;1756114;80;21167;-71
2021/01/14 01:33:41;;;;;;;10.15;4.50;;;;;;;-0.62;92.75;99225.11;1756192;81;21159;-72
2021/01/14 01:36:11;;;;;;;11.20;3.58;;;;;;;-0.62;92.76;99225.11;1756046;81;21171;-71
2021/01/14 01:38:37;;;;;;;4.37;3.30;;;;;;;-0.63;92.76;99226.05;1738970;81;21178;-71
2021/01/14 01:41:04;;;;;;;6.75;3.52;;;;;;;-0.64;92.76;99228.34;1726062;82;21170;-71
2021/01/14 01:43:30;;;;;;;7.62;3.00;;;;;;;-0.63;92.75;99229.15;1725788;83;21189;-71
2021/01/14 01:45:56;;;;;;;5.60;2.87;;;;;;;-0.65;92.72;99234.53;1725991;83;21203;-71
2021/01/14 01:48:23;;;;;;;11.03;6.03;;;;;;;-0.64;92.74;99236.67;1725868;83;21520;-71
2021/01/14 01:50:53;;;;;;;10.28;6.95;;;;;;;-0.66;92.73;99244.64;1697090;83;21175;-71
2021/01/14 01:53:19;;;;;;;12.78;7.35;;;;;;;-0.67;92.73;99232.50;1719787;82;21179;-71
2021/01/14 01:55:45;;;;;;;10.93;5.37;;;;;;;-0.66;92.73;99249.88;1720211;81;21135;-71
2021/01/14 01:58:12;;;;;;;11.08;5.10;;;;;;;-0.67;92.73;99250.82;1745028;81;21977;-71
2021/01/14 02:00:39;;;;;;;8.10;4.42;;;;;;;-0.66;92.72;99260.34;1726095;83;21226;-71
2021/01/14 02:03:05;;;;;;;7.83;3.10;;;;;;;-0.69;92.72;99260.60;1725949;81;21187;-71
2021/01/14 02:05:35;;;;;;;9.30;3.77;;;;;;;-0.69;92.70;99254.53;1725959;81;21612;-71
2021/01/14 02:08:09;;;;;;;9.90;3.90;;;;;;;-0.69;92.71;99258.46;1728590;81;21166;-72
2021/01/14 02:10:55;;;;;;;10.85;4.17;;;;;;;-0.71;92.70;99261.22;1732396;81;21207;-71
2021/01/14 02:13:46;;;;;;;8.35;3.40;;;;;;;-0.71;92.70;99262.53;1747950;81;21135;-71
2021/01/14 02:16:13;;;;;;;13.45;4.10;;;;;;;-0.72;92.69;99268.72;1724733;82;21178;-71
2021/01/14 02:18:42;;;;;;;10.48;5.83;;;;;;;-0.72;92.69;99277.04;1726379;83;21130;-71
2021/01/14 02:21:12;;;;;;;14.10;6.37;;;;;;;-0.74;92.68;99278.46;1728051;81;21150;-71
2021/01/14 02:23:59;;;;;;;10.38;5.58;;;;;;;-0.76;92.69;99280.39;1726317;83;21163;-72
2021/01/14 02:26:27;;;;;;;9.45;3.87;;;;;;;-0.76;92.70;99280.39;1725900;83;21954;-71
2021/01/14 02:28:54;;;;;;;8.60;4.05;;;;;;;-0.77;92.68;99280.03;1725984;83;21151;-71
2021/01/14 02:31:24;;;;;;;13.75;5.42;;;;;;;-0.77;92.67;99280.50;1726446;83;21099;-71
2021/01/14 02:33:52;;;;;;;10.93;4.15;;;;;;;-0.77;92.68;99285.73;1726438;83;21146;-71
2021/01/14 02:36:24;;;;;;;7.08;2.62;;;;;;;-0.77;92.67;99282.64;1726112;83;21179;-71
2021/01/14 02:38:51;;;;;;;6.70;2.67;;;;;;;-0.78;92.67;99286.71;1725468;83;21134;-71
2021/01/14 02:41:18;;;;;;;6.20;3.10;;;;;;;-0.78;92.67;99288.02;1726138;83;21107;-71
2021/01/14 02:43:45;;;;;;;10.68;6.53;;;;;;;-0.80;92.67;99286.83;1726468;83;21563;-71
2021/01/14 02:46:11;;;;;;;10.65;6.55;;;;;;;-0.80;92.67;99293.37;1726341;82;21122;-72
2021/01/14 02:48:52;;;;;;;8.88;6.62;;;;;;;-0.80;92.64;99301.69;1755456;81;22063;-71
2021/01/14 02:51:23;;;;;;;9.30;5.00;;;;;;;-0.81;92.65;99302.16;1756510;81;21191;-71
2021/01/14 02:53:50;;;;;;;6.30;2.90;;;;;;;-0.81;92.64;99307.40;1756099;81;21632;-71
2021/01/14 02:56:17;;;;;;;4.87;2.58;;;;;;;-0.81;92.65;99311.33;1746184;81;21560;-71
2021/01/14 02:58:44;;;;;;;6.10;2.85;;;;;;;-0.81;92.64;99311.33;1726240;83;21108;-71
2021/01/14 03:01:11;;;;;;;6.33;2.60;;;;;;;-0.83;92.64;99319.79;1698137;83;21203;-71
2021/01/14 03:03:37;;;;;;;5.08;2.33;;;;;;;-0.82;92.63;99326.70;1726204;83;21662;-71
2021/01/14 03:06:04;;;;;;;5.95;2.33;;;;;;;-0.82;92.63;99322.77;1731643;81;21175;-71
2021/01/14 03:08:30;;;;;;;4.20;2.10;;;;;;;-0.85;92.62;99323.02;1756248;81;21166;-71
2021/01/14 03:10:56;;;;;;;10.53;6.25;;;;;;;-0.85;92.65;99326.95;1756554;81;21170;-71
2021/01/14 03:13:23;;;;;;;6.00;4.55;;;;;;;-0.86;92.64;99330.51;1756501;81;21406;-71
2021/01/14 03:15:49;;;;;;;10.08;5.92;;;;;;;-0.88;92.64;99333.71;1754111;81;21139;-71
2021/01/14 03:18:16;;;;;;;7.35;3.52;;;;;;;-0.89;92.61;99337.31;1756488;81;21131;-71
2021/01/14 03:20:42;;;;;;;7.87;2.98;;;;;;;-0.90;92.64;99339.56;1756312;81;21120;-71
2021/01/14 03:23:09;;;;;;;5.85;2.83;;;;;;;-0.89;92.62;99353.48;1756603;81;21203;-71
2021/01/14 03:25:35;;;;;;;6.03;2.15;;;;;;;-0.90;92.64;99350.03;1756283;81;21268;-71
2021/01/14 03:28:02;;;;;;;5.80;2.45;;;;;;;-0.91;92.63;99360.13;1756473;81;21159;-71
2021/01/14 03:30:28;;;;;;;7.97;3.70;;;;;;;-0.91;92.62;99358.82;1756567;81;21174;-71
2021/01/14 03:32:56;;;;;;;8.95;5.33;;;;;;;-0.91;92.63;99367.14;1756327;81;21135;-71
2021/01/14 03:35:23;;;;;;;9.50;3.62;;;;;;;-0.91;92.63;99376.30;1756638;81;21151;-71
2021/01/14 03:37:49;;;;;;;5.33;2.85;;;;;;;-0.90;92.62;99377.50;1756316;81;22049;-71
2021/01/14 03:40:17;;;;;;;6.92;3.12;;;;;;;-0.91;92.63;99384.15;1756124;81;21172;-71
2021/01/14 03:42:43;;;;;;;4.75;2.85;;;;;;;-0.93;92.63;99381.67;1746261;81;21116;-71
2021/01/14 03:45:10;;;;;;;5.15;2.12;;;;;;;-0.92;92.62;99391.67;1726358;83;21160;-71
2021/01/14 03:47:37;;;;;;;8.20;2.70;;;;;;;-0.93;92.62;99387.38;1749482;81;21099;-71
2021/01/14 03:50:05;;;;;;;6.92;2.72;;;;;;;-0.93;92.60;99393.45;1756453;81;22209;-72
2021/01/14 03:52:31;;;;;;;7.25;2.65;;;;;;;-0.94;92.62;99388.33;1756497;81;21139;-71
2021/01/14 03:54:58;;;;;;;6.70;2.98;;;;;;;-0.93;92.61;99388.22;1756278;81;21203;-71
2021/01/14 03:57:24;;;;;;;4.78;2.30;;;;;;;-0.94;92.62;99397.02;1756357;81;21108;-71
2021/01/14 03:59:50;;;;;;;7.65;2.80;;;;;;;-0.94;92.61;99401.41;1756398;81;21135;-71
2021/01/14 04:02:16;;;;;;;5.83;2.87;;;;;;;-0.94;92.60;99404.86;1756378;81;22127;-71
2021/01/14 04:04:43;;;;;;;6.60;2.87;;;;;;;-0.92;92.61;99404.28;1756347;81;21163;-71
2021/01/14 04:07:11;;;;;;;6.65;3.25;;;;;;;-0.90;92.61;99408.91;1756078;80;21131;-71
2021/01/14 04:09:38;;;;;;;4.67;3.15;;;;;;;-0.91;92.61;99412.47;1756291;81;21151;-71
2021/01/14 04:12:05;;;;;;;5.40;3.00;;;;;;;-0.92;92.62;99420.45;1742153;81;21203;-71
2021/01/14 04:14:31;;;;;;;8.43;3.72;;;;;;;-0.95;92.65;99425.43;1756422;81;21244;-71
2021/01/14 04:16:57;;;;;;;13.08;9.50;;;;;;;-0.95;92.63;99428.05;1756038;81;21107;-71
2021/01/14 04:19:24;;;;;;;13.22;6.85;;;;;;;-0.96;92.63;99426.41;1756383;81;21163;-71
2021/01/14 04:21:50;;;;;;;11.22;5.35;;;;;;;-0.97;92.63;99428.66;1756374;81;21099;-71
2021/01/14 04:24:17;;;;;;;11.53;4.60;;;;;;;-0.97;92.63;99440.43;1756276;81;21854;-71
2021/01/14 04:26:43;;;;;;;8.10;3.72;;;;;;;-0.96;92.63;99439.48;1756445;81;21528;-71
2021/01/14 04:29:09;;;;;;;8.50;3.62;;;;;;;-0.98;92.63;99438.76;1756220;81;21127;-71
2021/01/14 04:31:37;;;;;;;6.45;4.03;;;;;;;-0.99;92.62;99451.50;1756601;81;21563;-71
2021/01/14 04:34:04;;;;;;;11.90;5.47;;;;;;;-0.98;92.64;99450.53;1756261;81;21127;-71
2021/01/14 04:36:31;;;;;;;10.70;6.20;;;;;;;-0.97;92.62;99454.82;1756273;81;21133;-71
2021/01/14 04:38:58;;;;;;;7.75;4.42;;;;;;;-0.95;92.63;99452.90;1756710;81;21657;-71
2021/01/14 04:41:24;;;;;;;8.68;4.30;;;;;;;-0.95;92.63;99458.64;1761738;81;21143;-71
2021/01/14 04:43:50;;;;;;;5.83;4.00;;;;;;;-0.95;92.65;99462.06;1761940;81;21143;-71
2021/01/14 04:46:17;;;;;;;9.15;4.47;;;;;;;-0.96;92.63;99472.19;1761758;81;21135;-71
2021/01/14 04:48:48;;;;;;;8.85;5.35;;;;;;;-0.94;92.63;99474.67;1759692;81;21583;-71
2021/01/14 04:51:19;;;;;;;8.83;5.70;;;;;;;-0.93;92.65;99482.41;1761862;81;21144;-71
2021/01/14 04:53:48;;;;;;;11.20;5.30;;;;;;;-0.94;92.65;99485.14;1761815;80;21147;-71
2021/01/14 04:56:15;;;;;;;6.50;4.87;;;;;;;-0.92;92.64;99488.02;1761832;81;21170;-71
2021/01/14 04:58:47;;;;;;;7.60;4.17;;;;;;;-0.89;92.66;99499.55;1761799;81;21151;-71
2021/01/14 05:01:21;;;;;;;6.95;4.50;;;;;;;-0.89;92.65;99499.55;1735377;81;21540;-71
2021/01/14 05:03:49;;;;;;;7.55;4.53;;;;;;;-0.89;92.66;99506.09;1761908;81;21251;-71
2021/01/14 05:06:21;;;;;;;8.10;5.00;;;;;;;-0.87;92.65;99509.88;1746621;81;21262;-71
2021/01/14 05:09:04;;;;;;;8.73;4.67;;;;;;;-0.87;92.66;99512.02;1731485;82;21187;-71
2021/01/14 05:11:39;;;;;;;8.25;4.90;;;;;;;-0.86;92.65;99516.31;1731240;82;21127;-71
2021/01/14 05:14:07;;;;;;;7.50;4.62;;;;;;;-0.86;92.66;99515.47;1731223;82;21170;-71
2021/01/14 05:16:33;;;;;;;6.70;4.42;;;;;;;-0.86;92.65;99512.39;1731539;82;21203;-70
2021/01/14 05:18:59;;;;;;;11.63;7.22;;;;;;;-0.85;92.66;99523.22;1731526;82;21183;-70
2021/01/14 05:21:32;;;;;;;10.82;7.45;;;;;;;-0.85;92.67;99527.14;1731439;82;21115;-71
2021/01/14 05:24:12;;;;;;;12.18;4.92;;;;;;;-0.82;92.68;99536.53;1758754;81;21135;-71
2021/01/14 05:26:39;;;;;;;11.93;5.97;;;;;;;-0.82;92.67;99533.44;1761854;81;21123;-71
2021/01/14 05:29:19;;;;;;;10.15;5.00;;;;;;;-0.80;92.69;99542.47;1761924;81;22050;-71
2021/01/14 05:31:46;;;;;;;9.13;5.17;;;;;;;-0.79;92.68;99547.59;1760262;81;21112;-70
2021/01/14 05:34:17;;;;;;;10.05;5.10;;;;;;;-0.80;92.68;99552.94;1731770;82;21158;-71
2021/01/14 05:36:55;;;;;;;11.68;5.50;;;;;;;-0.79;92.68;99557.23;1731679;82;21118;-71
2021/01/14 05:39:22;;;;;;;9.55;5.20;;;;;;;-0.78;92.69;99558.43;1730791;82;21607;-70
2021/01/14 05:41:49;;;;;;;11.12;5.97;;;;;;;-0.78;92.68;99561.05;1728282;81;21259;-71
2021/01/14 05:44:16;;;;;;;7.03;5.10;;;;;;;-0.78;92.69;99561.05;1726290;82;21143;-71
2021/01/14 05:46:42;;;;;;;9.48;5.03;;;;;;;-0.75;92.70;99571.27;1726194;81;21126;-71
2021/01/14 05:49:10;;;;;;;11.22;5.72;;;;;;;-0.74;92.69;99572.11;1726191;82;21219;-71
2021/01/14 05:51:36;;;;;;;7.33;4.87;;;;;;;-0.75;92.71;99579.13;1726141;83;21123;-71
2021/01/14 05:54:14;;;;;;;9.35;5.22;;;;;;;-0.73;92.70;99587.69;1726076;83;21179;-71
2021/01/14 05:56:48;;;;;;;33.00;14.18;;;;;;;-0.73;92.71;99592.92;1726203;83;21552;-71
2021/01/14 05:59:17;;;;;;;12.65;7.03;;;;;;;-0.73;92.71;99593.39;1725570;81;21139;-71
2021/01/14 06:01:58;;;;;;;26.20;12.18;;;;;;;-0.73;92.69;99599.46;1726314;82;21143;-71
2021/01/14 06:04:29;;;;;;;19.57;9.85;;;;;;;-0.71;92.71;99596.73;1726254;83;21119;-71
2021/01/14 06:07:02;;;;;;;15.88;7.95;;;;;;;-0.72;92.71;99593.28;1726812;81;21266;-71
2021/01/14 06:09:26;;;;;;;53.15;20.62;;;;;;;-0.70;92.71;99611.00;1737956;81;21163;-71
2021/01/14 06:12:07;;;;;;;19.07;10.88;;;;;;;-0.70;92.72;99614.92;1755644;81;21155;-71
2021/01/14 06:14:33;;;;;;;22.15;12.07;;;;;;;-0.70;92.72;99616.70;1756097;81;21135;-71
2021/01/14 06:17:04;;;;;;;19.35;10.68;;;;;;;-0.71;92.73;99626.38;1732819;81;21153;-71
2021/01/14 06:19:31;;;;;;;13.22;7.62;;;;;;;-0.70;92.75;99625.39;1726352;81;21279;-71
2021/01/14 06:21:57;;;;;;;19.02;10.63;;;;;;;-0.70;92.73;99635.87;1697556;83;21142;-71
2021/01/14 06:24:27;;;;;;;15.53;8.03;;;;;;;-0.70;92.73;99638.48;1726227;82;21143;-71
2021/01/14 06:26:57;;;;;;;;;;;;;;;-0.68;92.75;99648.86;1728791;83;21134;-71
2021/01/14 06:29:28;;;;;;;16.75;9.60;;;;;;;-0.68;92.74;99652.31;1726159;82;20535;-71
2021/01/14 06:32:14;;;;;;;45.40;19.50;;;;;;;-0.67;92.73;99661.81;1725617;82;21154;-71
2021/01/14 06:34:51;;;;;;;86.82;34.70;;;;;;;-0.65;92.74;99670.39;1726113;83;21147;-71
2021/01/14 06:37:25;;;;;;;41.65;21.70;;;;;;;-0.62;92.74;99674.08;1726225;82;21123;-71
2021/01/14 06:39:59;;;;;;;35.55;17.52;;;;;;;-0.58;92.74;99682.06;1726838;82;21159;-71
2021/01/14 06:42:31;;;;;;;42.70;20.12;;;;;;;-0.56;92.75;99682.77;1733564;81;21579;-71
2021/01/14 06:45:01;;;;;;;42.00;20.40;;;;;;;-0.54;92.75;99693.98;1731798;82;21912;-71
2021/01/14 06:47:43;;;;;;;43.73;21.97;;;;;;;-0.52;92.75;99703.84;1745666;81;21186;-71
2021/01/14 06:50:20;;;;;;;34.53;17.27;;;;;;;-0.50;92.74;99703.74;1762043;81;21554;-71
2021/01/14 06:53:11;;;;;;;61.40;24.27;;;;;;;-0.44;92.76;99719.45;1761859;81;21147;-71
2021/01/14 06:55:37;;;;;;;56.10;22.50;;;;;;;-0.40;92.76;99722.20;1761882;80;21127;-71
2021/01/14 06:58:09;;;;;;;40.83;20.35;;;;;;;-0.36;92.78;99736.27;1738691;81;21158;-71
2021/01/14 07:00:41;;;;;;;29.05;17.85;;;;;;;-0.33;92.78;99737.80;1760470;81;21158;-71
2021/01/14 07:03:20;;;;;;;67.20;37.13;;;;;;;-0.30;92.79;99749.35;1735223;81;21631;-71
2021/01/14 07:05:58;;;;;;;;;;;;;;;-0.28;92.79;99751.40;1734059;82;21119;-71
2021/01/14 07:09:08;;;;;;;45.17;24.40;;;;;;;-0.27;92.79;99755.19;1758599;81;20266;-71
2021/01/14 07:11:47;;;;;;;46.13;24.60;;;;;;;-0.18;92.81;99771.53;1815407;77;22774;-71
2021/01/14 07:14:15;;;;;;;56.40;26.20;;;;;;;-0.21;92.82;99774.86;1788234;80;21168;-71
2021/01/14 07:16:43;;;;;;;51.75;25.77;;;;;;;-0.21;92.80;99779.60;1747585;80;21560;-71
2021/01/14 07:19:10;;;;;;;54.75;27.05;;;;;;;-0.19;92.82;99786.89;1765393;80;21167;-71
2021/01/14 07:21:43;;;;;;;61.33;29.18;;;;;;;-0.16;92.83;99793.67;1787993;80;21127;-71
2021/01/14 07:24:18;;;;;;;57.60;28.47;;;;;;;-0.16;92.83;99798.44;1757253;80;21155;-71
2021/01/14 07:26:59;;;;;;;77.60;39.08;;;;;;;-0.15;92.84;99807.14;1765292;80;21565;-71
2021/01/14 07:29:26;;;;;;;81.20;38.58;;;;;;;-0.13;92.84;99820.95;1756591;81;21199;-71
2021/01/14 07:31:54;;;;;;;80.35;36.77;;;;;;;-0.12;92.86;99829.17;1756992;81;21148;-71
2021/01/14 07:34:37;;;;;;;77.62;33.23;;;;;;;-0.12;92.87;99839.19;1757046;80;21120;-71
2021/01/14 07:37:06;;;;;;;69.42;32.53;;;;;;;-0.10;92.86;99846.91;1782297;80;21160;-71
2021/01/14 07:39:56;;;;;;;61.20;28.83;;;;;;;-0.10;92.87;99852.15;1788125;80;21124;-71
2021/01/14 07:42:32;;;;;;;54.03;27.40;;;;;;;-0.09;92.88;99859.07;1774878;80;21564;-71
2021/01/14 07:45:06;;;;;;;56.25;29.48;;;;;;;-0.09;92.89;99871.70;1763707;80;21615;-71
2021/01/14 07:47:37;;;;;;;65.57;31.45;;;;;;;-0.07;92.90;99881.58;1765534;80;21096;-71
2021/01/14 07:50:23;;;;;;;63.75;29.60;;;;;;;-0.07;92.89;99891.26;1763936;80;27127;-71
2021/01/14 07:52:52;;;;;;;70.67;33.25;;;;;;;-0.06;92.90;99890.28;1762857;80;21116;-71
2021/01/14 07:55:31;;;;;;;61.55;28.65;;;;;;;-0.06;92.91;99894.22;1756976;81;21229;-70
2021/01/14 07:58:20;;;;;;;60.88;27.90;;;;;;;-0.06;92.93;99900.77;1759797;80;21119;-70
2021/01/14 08:01:07;;;;;;;46.58;20.65;;;;;;;-0.07;92.93;99908.29;1756995;81;21127;-71
2021/01/14 08:03:40;;;;;;;50.85;25.27;;;;;;;-0.07;92.93;99910.41;1756596;81;21596;-71
2021/01/14 08:06:30;;;;;;;46.10;25.62;;;;;;;-0.06;92.95;99925.19;1760357;80;21111;-70
2021/01/14 08:09:06;;;;;;;41.98;20.37;;;;;;;-0.02;92.95;99931.87;1777131;80;21213;-71
2021/01/14 08:11:38;;;;;;;53.98;26.20;;;;;;;0.04;92.97;99941.06;1727023;81;21178;-71
2021/01/14 08:14:09;;;;;;;50.95;27.42;;;;;;;0.06;92.97;99949.66;1777626;80;21135;-71
2021/01/14 08:16:42;;;;;;;54.67;26.37;;;;;;;0.06;92.97;99947.03;1766206;80;21096;-70
2021/01/14 08:19:21;;;;;;;50.00;24.92;;;;;;;0.05;92.97;99955.84;1788068;80;21167;-70
2021/01/14 08:22:01;;;;;;;57.50;24.05;;;;;;;0.04;92.98;99967.73;1787715;80;21240;-71
2021/01/14 08:24:56;;;;;;;50.73;24.85;;;;;;;0.03;92.98;99964.31;1760037;80;28070;-71
2021/01/14 08:27:30;;;;;;;48.10;23.55;;;;;;;0.05;92.97;99974.66;1784763;80;21104;-71
2021/01/14 08:30:12;;;;;;;48.63;24.67;;;;;;;0.07;92.98;99978.83;1787244;80;21110;-71
2021/01/14 08:33:04;;;;;;;51.50;26.42;;;;;;;0.10;92.97;99987.80;1780132;80;21116;-71
2021/01/14 08:35:34;;;;;;;52.33;27.27;;;;;;;0.12;92.97;99989.83;1768341;80;23020;-70
2021/01/14 08:38:11;;;;;;;49.90;25.43;;;;;;;0.16;92.97;99987.34;1781723;80;21158;-71
2021/01/14 08:40:39;;;;;;;38.60;23.98;;;;;;;0.21;92.98;100002.23;1775457;80;21124;-71
2021/01/14 08:43:13;;;;;;;44.33;23.38;;;;;;;0.26;92.96;100011.08;1799711;78;21134;-71
2021/01/14 08:45:55;;;;;;;45.10;24.87;;;;;;;0.31;92.96;100015.05;1777499;78;21152;-71
2021/01/14 08:48:26;;;;;;;43.98;23.32;;;;;;;0.38;93.00;100020.20;1813831;78;22075;-71
2021/01/14 08:51:02;;;;;;;53.87;26.52;;;;;;;0.49;92.98;100030.69;1772901;78;21199;-71
2021/01/14 08:53:38;;;;;;;61.63;29.95;;;;;;;0.53;92.98;100039.67;1777228;80;21613;-71
2021/01/14 08:56:08;;;;;;;70.72;31.57;;;;;;;0.50;92.96;100045.49;1775581;80;21152;-71
2021/01/14 08:58:44;;;;;;;166.35;86.40;;;;;;;0.50;92.95;100046.80;1779453;80;21178;-71
2021/01/14 09:01:19;;;;;;;100.07;51.35;;;;;;;0.58;92.98;100051.95;1777983;80;21183;-71
2021/01/14 09:03:47;;;;;;;75.97;37.55;;;;;;;0.61;92.98;100059.59;1777625;80;21290;-71
2021/01/14 09:06:19;;;;;;;115.60;48.52;;;;;;;0.55;92.97;100058.74;1779074;80;21703;-71
2021/01/14 09:08:53;;;;;;;98.87;45.70;;;;;;;0.56;92.99;100064.36;1739655;80;21710;-71
2021/01/14 09:11:26;;;;;;;73.52;35.38;;;;;;;0.58;93.00;100080.81;1776976;80;21196;-72
2021/01/14 09:14:15;;;;;;;112.32;47.05;;;;;;;0.56;92.97;100086.66;1783403;80;22141;-71
2021/01/14 09:16:44;;;;;;;76.35;33.30;;;;;;;0.54;92.97;100091.16;1777178;80;21243;-71
2021/01/14 09:19:13;;;;;;;;;;;;;;;0.50;92.94;100097.95;1783606;80;21241;-71
2021/01/14 09:21:40;;;;;;;94.32;44.10;;;;;;;0.50;92.91;100108.45;1778980;80;20281;-71
2021/01/14 09:24:09;;;;;;;113.25;51.08;;;;;;;0.50;92.93;100107.13;1782688;80;21519;-71
2021/01/14 09:26:40;;;;;;;117.75;52.65;;;;;;;0.56;92.93;100115.52;1781121;78;21588;-71
2021/01/14 09:29:12;;;;;;;113.80;49.13;;;;;;;0.53;92.92;100115.75;1780171;80;21231;-71
2021/01/14 09:31:41;;;;;;;86.02;39.73;;;;;;;0.54;92.91;100118.23;1779367;78;21171;-71
2021/01/14 09:34:08;;;;;;;78.87;36.20;;;;;;;0.54;92.93;100122.64;1777519;80;21192;-71
2021/01/14 09:36:34;;;;;;;114.82;45.95;;;;;;;0.53;92.91;100126.23;1777551;80;21177;-71
2021/01/14 09:39:05;;;;;;;110.45;41.48;;;;;;;0.53;92.90;100136.73;1779470;80;22231;-71
2021/01/14 09:41:36;;;;;;;;;;;;;;;0.55;92.88;100147.94;1784315;80;21117;-71
2021/01/14 09:44:09;;;;;;;120.80;46.37;;;;;;;0.55;92.87;100153.19;1778950;80;21389;-71
2021/01/14 09:46:37;;;;;;;98.17;39.85;;;;;;;0.54;92.84;100155.44;1777887;78;21162;-71
2021/01/14 09:49:14;;;;;;;106.40;44.23;;;;;;;0.57;92.83;100165.70;1782177;78;21087;-71
2021/01/14 09:51:42;;;;;;;137.35;54.48;;;;;;;0.61;92.82;100169.78;1779635;80;21906;-71
2021/01/14 09:54:09;;;;;;;158.35;66.05;;;;;;;0.67;92.81;100178.53;1779287;80;21992;-71
2021/01/14 09:56:42;;;;;;;139.28;63.78;;;;;;;0.72;92.79;100183.80;1781459;80;21192;-72
2021/01/14 10:02:39;;;;;;;165.15;68.97;;;;;;;0.82;92.81;100190.50;1820840;77;22686;-71
2021/01/14 10:05:10;;;;;;;134.10;55.63;;;;;;;0.80;92.81;100195.05;1791676;78;21166;-72
2021/01/14 10:07:36;;;;;;;145.05;53.05;;;;;;;0.82;92.79;100195.75;1791426;78;21285;-71
2021/01/14 10:10:03;;;;;;;114.65;48.35;;;;;;;0.83;92.79;100193.03;1792585;78;21183;-71
2021/01/14 10:12:32;;;;;;;112.30;48.73;;;;;;;0.87;92.77;100198.89;1793790;78;21143;-71
2021/01/14 10:15:09;;;;;;;93.10;42.60;;;;;;;0.94;92.77;100206.20;1792501;77;21230;-71
2021/01/14 10:17:38;;;;;;;117.08;48.75;;;;;;;0.99;92.79;100210.63;1790524;78;21089;-71
2021/01/14 10:20:07;;;;;;;92.30;42.83;;;;;;;1.03;92.78;100205.98;1791667;78;21250;-71
2021/01/14 10:22:35;;;;;;;106.37;47.27;;;;;;;1.05;92.79;100214.59;1792895;78;21157;-71
2021/01/14 10:25:07;;;;;;;93.27;41.77;;;;;;;1.04;92.81;100214.22;1791097;78;21120;-72
2021/01/14 10:27:34;;;;;;;121.40;48.42;;;;;;;1.03;92.80;100217.80;1793043;78;21155;-72
2021/01/14 10:30:20;;;;;;;129.95;52.38;;;;;;;1.02;92.81;100216.14;1790654;78;21171;-72
2021/01/14 10:32:47;;;;;;;142.00;57.38;;;;;;;1.08;92.78;100222.71;1791346;78;21208;-72
2021/01/14 10:35:29;;;;;;;152.80;58.23;;;;;;;1.14;92.81;100225.72;1795080;78;21160;-72
2021/01/14 10:38:13;;;;;;;81.55;36.75;;;;;;;1.17;92.75;100229.89;1793224;78;21584;-72
2021/01/14 10:40:51;;;;;;;95.57;37.38;;;;;;;1.17;92.74;100236.45;1790488;78;21232;-72
2021/01/14 10:46:25;;;;;;;81.27;39.10;;;;;;;1.17;92.67;100253.52;1801179;77;31304;-72
2021/01/14 10:48:51;;;;;;;90.07;42.10;;;;;;;1.20;92.66;100264.64;1795203;78;21084;-72
2021/01/14 10:51:32;;;;;;;153.95;55.00;;;;;;;1.19;92.64;100262.98;1795057;78;21196;-72
2021/01/14 10:53:59;;;;;;;110.48;41.15;;;;;;;1.18;92.64;100263.93;1794399;78;22044;-72
2021/01/14 10:56:25;;;;;;;75.80;32.60;;;;;;;1.18;92.63;100261.30;1798465;78;21146;-72
2021/01/14 10:58:57;;;;;;;80.00;32.42;;;;;;;1.17;92.63;100268.81;1797163;78;21167;-73
2021/01/14 11:01:23;;;;;;;86.15;34.38;;;;;;;1.15;92.61;100279.92;1806813;78;21644;-72
2021/01/14 11:03:50;;;;;;;90.55;35.13;;;;;;;1.10;92.63;100278.09;1812135;78;22190;-72
2021/01/14 11:09:13;;;;;;;70.52;35.43;;;;;;;1.11;92.60;100285.03;1812586;77;28047;-72
2021/01/14 11:11:39;;;;;;;65.70;29.02;;;;;;;1.17;92.56;100288.50;1791412;78;21142;-72
2021/01/14 11:14:06;;;;;;;54.95;25.00;;;;;;;1.22;92.56;100278.52;1791962;79;22176;-72
2021/01/14 11:16:32;;;;;;;64.25;30.12;;;;;;;1.28;92.55;100278.52;1791087;80;21152;-72
2021/01/14 11:18:58;;;;;;;80.42;35.83;;;;;;;1.30;92.56;100274.81;1797083;78;21151;-72
2021/01/14 11:21:30;;;;;;;67.70;31.50;;;;;;;1.33;92.53;100276.41;1792901;78;22260;-72
2021/01/14 11:23:57;;;;;;;53.63;25.65;;;;;;;1.36;92.52;100276.17;1811316;78;21160;-72
2021/01/14 11:26:23;;;;;;;47.13;24.10;;;;;;;1.37;92.49;100277.34;1796391;78;21222;-73
2021/01/14 11:28:50;;;;;;;62.23;27.73;;;;;;;1.34;92.46;100278.90;1792436;78;21219;-73
2021/01/14 11:31:19;;;;;;;57.98;26.57;;;;;;;1.35;92.46;100277.95;1805110;79;21140;-72
2021/01/14 11:33:45;;;;;;;61.75;26.40;;;;;;;1.33;92.43;100277.25;1803940;78;21611;-73
2021/01/14 11:36:13;;;;;;;56.42;25.50;;;;;;;1.34;92.40;100279.38;1777266;79;21164;-74
2021/01/14 11:41:25;;;;;;;45.10;20.65;;;;;;;1.49;92.35;100273.81;1831105;77;23211;-75
2021/01/14 11:43:51;;;;;;;49.63;24.07;;;;;;;1.49;92.33;100275.13;1806879;78;21021;-77
2021/01/14 11:46:24;;;;;;;38.70;20.10;;;;;;;1.63;92.29;100277.19;1790114;78;21258;-77
2021/01/14 11:48:49;;;;;;;41.35;19.15;;;;;;;1.77;92.26;100279.60;1801260;78;21532;-77
2021/01/14 11:51:16;;;;;;;43.52;20.48;;;;;;;1.81;92.24;100278.42;1822978;78;21710;-77
2021/01/14 11:53:43;;;;;;;46.10;21.93;;;;;;;1.74;92.19;100286.41;1817789;78;21206;-77